sensor_id;sensor_type;location;lat;lon;timestamp;temperature;humidity
21439;DHT22;10880;50.302;18.736;2022-09-09T00:13:19;23.40;64.20
21439;DHT22;10880;50.302;18.736;2022-09-09T00:21:46;23.30;64.30
21439;DHT22;10880;50.302;18.736;2022-09-09T00:24:39;23.30;64.20
21439;DHT22;10880;50.302;18.736;2022-09-09T00:27:20;23.30;64.30
21439;DHT22;10880;50.302;18.736;2022-09-09T00:29:52;23.20;64.30
21439;DHT22;10880;50.302;18.736;2022-09-09T00:32:24;23.20;64.20
21439;DHT22;10880;50.302;18.736;2022-09-09T00:35:03;23.20;64.20
21439;DHT22;10880;50.302;18.736;2022-09-09T00:37:32;23.20;64.30
21439;DHT22;10880;50.302;18.736;2022-09-09T00:40:04;23.20;64.30
21439;DHT22;10880;50.302;18.736;2022-09-09T00:42:41;23.10;64.20
21439;DHT22;10880;50.302;18.736;2022-09-09T00:48:11;23.10;64.60
21439;DHT22;10880;50.302;18.736;2022-09-09T00:50:56;23.10;63.80
21439;DHT22;10880;50.302;18.736;2022-09-09T00:56:09;23.10;63.90
21439;DHT22;10880;50.302;18.736;2022-09-09T00:58:38;23.00;64.40
21439;DHT22;10880;50.302;18.736;2022-09-09T01:01:09;23.00;63.60
21439;DHT22;10880;50.302;18.736;2022-09-09T01:03:46;23.00;64.40
21439;DHT22;10880;50.302;18.736;2022-09-09T01:06:35;23.00;64.40
21439;DHT22;10880;50.302;18.736;2022-09-09T01:14:45;23.00;64.60
21439;DHT22;10880;50.302;18.736;2022-09-09T01:17:25;23.00;64.60
21439;DHT22;10880;50.302;18.736;2022-09-09T01:28:44;22.90;64.80
21439;DHT22;10880;50.302;18.736;2022-09-09T01:31:18;22.90;65.30
21439;DHT22;10880;50.302;18.736;2022-09-09T01:33:47;22.90;65.40
21439;DHT22;10880;50.302;18.736;2022-09-09T01:36:29;22.90;65.30
21439;DHT22;10880;50.302;18.736;2022-09-09T01:38:59;22.90;64.60
21439;DHT22;10880;50.302;18.736;2022-09-09T01:41:26;22.90;64.20
21439;DHT22;10880;50.302;18.736;2022-09-09T01:44:09;22.80;64.60
21439;DHT22;10880;50.302;18.736;2022-09-09T01:46:38;22.80;64.30
21439;DHT22;10880;50.302;18.736;2022-09-09T01:49:08;22.80;64.30
21439;DHT22;10880;50.302;18.736;2022-09-09T01:51:36;22.60;64.50
21439;DHT22;10880;50.302;18.736;2022-09-09T01:54:06;22.80;64.80
21439;DHT22;10880;50.302;18.736;2022-09-09T02:05:39;22.80;64.90
21439;DHT22;10880;50.302;18.736;2022-09-09T02:08:33;22.80;65.00
21439;DHT22;10880;50.302;18.736;2022-09-09T02:11:09;22.80;64.90
21439;DHT22;10880;50.302;18.736;2022-09-09T02:14:02;22.70;64.60
21439;DHT22;10880;50.302;18.736;2022-09-09T02:16:42;22.70;64.80
21439;DHT22;10880;50.302;18.736;2022-09-09T02:19:15;22.70;64.90
21439;DHT22;10880;50.302;18.736;2022-09-09T02:22:06;22.70;64.90
21439;DHT22;10880;50.302;18.736;2022-09-09T02:24:35;22.60;64.00
21439;DHT22;10880;50.302;18.736;2022-09-09T02:27:16;22.60;64.80
21439;DHT22;10880;50.302;18.736;2022-09-09T02:29:45;22.60;64.80
21439;DHT22;10880;50.302;18.736;2022-09-09T02:32:16;22.60;64.60
21439;DHT22;10880;50.302;18.736;2022-09-09T02:34:46;22.50;64.90
21439;DHT22;10880;50.302;18.736;2022-09-09T02:37:15;22.50;65.70
21439;DHT22;10880;50.302;18.736;2022-09-09T02:39:48;22.50;65.00
21439;DHT22;10880;50.302;18.736;2022-09-09T02:42:17;22.50;64.50
21439;DHT22;10880;50.302;18.736;2022-09-09T02:44:44;22.50;64.70
21439;DHT22;10880;50.302;18.736;2022-09-09T02:50:13;22.50;65.10
21439;DHT22;10880;50.302;18.736;2022-09-09T02:55:23;22.40;65.00
21439;DHT22;10880;50.302;18.736;2022-09-09T02:57:52;22.40;65.00
21439;DHT22;10880;50.302;18.736;2022-09-09T03:00:24;22.40;64.90
21439;DHT22;10880;50.302;18.736;2022-09-09T03:02:51;22.40;65.00
21439;DHT22;10880;50.302;18.736;2022-09-09T03:05:19;22.40;64.90
21439;DHT22;10880;50.302;18.736;2022-09-09T03:07:47;22.30;64.70
21439;DHT22;10880;50.302;18.736;2022-09-09T03:10:18;22.30;64.50
21439;DHT22;10880;50.302;18.736;2022-09-09T03:12:44;22.30;64.20
21439;DHT22;10880;50.302;18.736;2022-09-09T03:15:11;22.30;64.20
21439;DHT22;10880;50.302;18.736;2022-09-09T03:17:39;22.30;64.20
21439;DHT22;10880;50.302;18.736;2022-09-09T03:20:06;22.30;64.30
21439;DHT22;10880;50.302;18.736;2022-09-09T03:22:33;22.20;64.60
21439;DHT22;10880;50.302;18.736;2022-09-09T03:25:01;22.20;64.50
21439;DHT22;10880;50.302;18.736;2022-09-09T03:27:29;22.20;64.20
21439;DHT22;10880;50.302;18.736;2022-09-09T03:29:56;22.20;64.30
21439;DHT22;10880;50.302;18.736;2022-09-09T03:32:25;22.20;64.20
21439;DHT22;10880;50.302;18.736;2022-09-09T03:34:56;22.20;64.20
21439;DHT22;10880;50.302;18.736;2022-09-09T03:37:22;22.10;63.80
21439;DHT22;10880;50.302;18.736;2022-09-09T03:39:50;22.10;63.80
21439;DHT22;10880;50.302;18.736;2022-09-09T03:42:17;22.10;63.70
21439;DHT22;10880;50.302;18.736;2022-09-09T03:44:47;22.00;64.00
21439;DHT22;10880;50.302;18.736;2022-09-09T03:47:17;22.00;64.20
21439;DHT22;10880;50.302;18.736;2022-09-09T03:49:45;21.90;64.10
21439;DHT22;10880;50.302;18.736;2022-09-09T03:52:11;21.90;63.50
21439;DHT22;10880;50.302;18.736;2022-09-09T03:54:38;21.90;63.90
21439;DHT22;10880;50.302;18.736;2022-09-09T03:57:05;21.90;64.00
21439;DHT22;10880;50.302;18.736;2022-09-09T03:59:32;21.80;63.50
21439;DHT22;10880;50.302;18.736;2022-09-09T04:01:58;21.80;63.60
21439;DHT22;10880;50.302;18.736;2022-09-09T04:04:25;21.80;63.70
21439;DHT22;10880;50.302;18.736;2022-09-09T04:06:55;21.70;64.10
21439;DHT22;10880;50.302;18.736;2022-09-09T04:09:21;21.70;63.50
21439;DHT22;10880;50.302;18.736;2022-09-09T04:11:48;21.70;63.80
21439;DHT22;10880;50.302;18.736;2022-09-09T04:14:15;21.70;63.80
21439;DHT22;10880;50.302;18.736;2022-09-09T04:16:42;21.70;63.80
21439;DHT22;10880;50.302;18.736;2022-09-09T04:19:12;21.60;63.90
21439;DHT22;10880;50.302;18.736;2022-09-09T04:21:41;21.60;64.10
21439;DHT22;10880;50.302;18.736;2022-09-09T04:24:08;21.60;63.90
21439;DHT22;10880;50.302;18.736;2022-09-09T04:26:36;21.50;63.80
21439;DHT22;10880;50.302;18.736;2022-09-09T04:29:03;21.50;64.10
21439;DHT22;10880;50.302;18.736;2022-09-09T04:31:30;21.50;64.00
21439;DHT22;10880;50.302;18.736;2022-09-09T04:33:57;21.50;63.60
21439;DHT22;10880;50.302;18.736;2022-09-09T04:36:24;21.50;63.50
21439;DHT22;10880;50.302;18.736;2022-09-09T04:38:54;21.50;63.60
21439;DHT22;10880;50.302;18.736;2022-09-09T04:41:21;21.40;63.30
21439;DHT22;10880;50.302;18.736;2022-09-09T04:43:50;21.40;63.40
21439;DHT22;10880;50.302;18.736;2022-09-09T04:46:18;21.40;63.40
21439;DHT22;10880;50.302;18.736;2022-09-09T04:48:44;21.40;63.60
21439;DHT22;10880;50.302;18.736;2022-09-09T04:51:13;21.30;63.50
21439;DHT22;10880;50.302;18.736;2022-09-09T04:53:40;21.30;63.70
21439;DHT22;10880;50.302;18.736;2022-09-09T04:56:16;21.30;63.70
21439;DHT22;10880;50.302;18.736;2022-09-09T04:58:52;21.30;64.00
21439;DHT22;10880;50.302;18.736;2022-09-09T05:01:22;21.30;63.60
21439;DHT22;10880;50.302;18.736;2022-09-09T05:03:51;21.30;63.70
21439;DHT22;10880;50.302;18.736;2022-09-09T05:06:22;21.30;63.60
21439;DHT22;10880;50.302;18.736;2022-09-09T05:08:53;21.20;63.50
21439;DHT22;10880;50.302;18.736;2022-09-09T05:11:31;21.20;63.60
21439;DHT22;10880;50.302;18.736;2022-09-09T05:14:22;21.20;64.10
21439;DHT22;10880;50.302;18.736;2022-09-09T05:16:49;21.20;63.60
21439;DHT22;10880;50.302;18.736;2022-09-09T05:19:16;21.20;64.10
21439;DHT22;10880;50.302;18.736;2022-09-09T05:21:48;21.20;64.20
21439;DHT22;10880;50.302;18.736;2022-09-09T05:24:17;21.20;64.00
21439;DHT22;10880;50.302;18.736;2022-09-09T05:26:45;21.20;64.10
21439;DHT22;10880;50.302;18.736;2022-09-09T05:29:12;21.20;64.00
21439;DHT22;10880;50.302;18.736;2022-09-09T05:31:38;21.20;64.20
21439;DHT22;10880;50.302;18.736;2022-09-09T05:34:09;21.20;64.50
21439;DHT22;10880;50.302;18.736;2022-09-09T05:36:36;21.20;64.20
21439;DHT22;10880;50.302;18.736;2022-09-09T05:39:03;21.20;64.20
21439;DHT22;10880;50.302;18.736;2022-09-09T05:41:31;21.30;64.80
21439;DHT22;10880;50.302;18.736;2022-09-09T05:44:01;21.20;64.80
21439;DHT22;10880;50.302;18.736;2022-09-09T05:46:28;21.30;64.70
21439;DHT22;10880;50.302;18.736;2022-09-09T05:48:55;21.30;64.60
21439;DHT22;10880;50.302;18.736;2022-09-09T05:51:28;21.30;65.00
21439;DHT22;10880;50.302;18.736;2022-09-09T05:54:01;21.30;65.40
21439;DHT22;10880;50.302;18.736;2022-09-09T05:56:31;21.30;65.00
21439;DHT22;10880;50.302;18.736;2022-09-09T05:58:59;21.40;65.50
21439;DHT22;10880;50.302;18.736;2022-09-09T06:01:31;21.40;65.60
21439;DHT22;10880;50.302;18.736;2022-09-09T06:04:00;21.40;66.00
21439;DHT22;10880;50.302;18.736;2022-09-09T06:06:31;21.40;65.70
21439;DHT22;10880;50.302;18.736;2022-09-09T06:08:59;21.40;66.10
21439;DHT22;10880;50.302;18.736;2022-09-09T06:11:31;21.50;65.70
21439;DHT22;10880;50.302;18.736;2022-09-09T06:13:59;21.50;66.20
21439;DHT22;10880;50.302;18.736;2022-09-09T06:16:28;21.50;66.30
21439;DHT22;10880;50.302;18.736;2022-09-09T06:18:56;21.50;66.50
21439;DHT22;10880;50.302;18.736;2022-09-09T06:21:29;21.60;66.70
21439;DHT22;10880;50.302;18.736;2022-09-09T06:24:04;21.60;67.30
21439;DHT22;10880;50.302;18.736;2022-09-09T06:26:33;21.70;67.70
21439;DHT22;10880;50.302;18.736;2022-09-09T06:29:04;21.80;68.60
21439;DHT22;10880;50.302;18.736;2022-09-09T06:31:32;21.90;67.50
21439;DHT22;10880;50.302;18.736;2022-09-09T06:34:07;22.00;67.50
21439;DHT22;10880;50.302;18.736;2022-09-09T06:36:37;22.10;67.20
21439;DHT22;10880;50.302;18.736;2022-09-09T06:39:07;22.10;67.00
21439;DHT22;10880;50.302;18.736;2022-09-09T06:41:37;22.20;66.80
21439;DHT22;10880;50.302;18.736;2022-09-09T06:44:06;22.20;66.50
21439;DHT22;10880;50.302;18.736;2022-09-09T06:46:40;22.30;66.60
21439;DHT22;10880;50.302;18.736;2022-09-09T06:49:08;22.30;66.20
21439;DHT22;10880;50.302;18.736;2022-09-09T06:51:37;22.30;66.20
21439;DHT22;10880;50.302;18.736;2022-09-09T06:54:09;22.40;66.70
21439;DHT22;10880;50.302;18.736;2022-09-09T06:56:39;22.40;66.70
21439;DHT22;10880;50.302;18.736;2022-09-09T06:59:15;22.40;66.90
21439;DHT22;10880;50.302;18.736;2022-09-09T07:01:42;22.50;66.30
21439;DHT22;10880;50.302;18.736;2022-09-09T07:04:13;22.50;66.90
21439;DHT22;10880;50.302;18.736;2022-09-09T07:06:47;22.60;66.60
21439;DHT22;10880;50.302;18.736;2022-09-09T07:09:21;22.60;66.70
21439;DHT22;10880;50.302;18.736;2022-09-09T07:11:51;22.60;66.60
21439;DHT22;10880;50.302;18.736;2022-09-09T07:14:23;22.70;67.00
21439;DHT22;10880;50.302;18.736;2022-09-09T07:16:55;22.70;66.60
21439;DHT22;10880;50.302;18.736;2022-09-09T07:19:22;22.70;66.80
21439;DHT22;10880;50.302;18.736;2022-09-09T07:21:53;22.80;67.00
21439;DHT22;10880;50.302;18.736;2022-09-09T07:24:23;22.80;66.70
21439;DHT22;10880;50.302;18.736;2022-09-09T07:26:50;22.80;66.80
21439;DHT22;10880;50.302;18.736;2022-09-09T07:29:18;22.90;66.90
21439;DHT22;10880;50.302;18.736;2022-09-09T07:31:47;22.90;66.70
21439;DHT22;10880;50.302;18.736;2022-09-09T07:34:18;23.00;67.20
21439;DHT22;10880;50.302;18.736;2022-09-09T07:36:52;23.00;66.90
21439;DHT22;10880;50.302;18.736;2022-09-09T07:39:19;23.10;66.90
21439;DHT22;10880;50.302;18.736;2022-09-09T07:41:49;23.20;66.80
21439;DHT22;10880;50.302;18.736;2022-09-09T07:44:23;23.20;66.90
21439;DHT22;10880;50.302;18.736;2022-09-09T07:46:58;23.30;67.20
21439;DHT22;10880;50.302;18.736;2022-09-09T07:49:31;23.30;66.50
21439;DHT22;10880;50.302;18.736;2022-09-09T07:51:58;23.40;66.80
21439;DHT22;10880;50.302;18.736;2022-09-09T07:54:25;23.40;66.40
21439;DHT22;10880;50.302;18.736;2022-09-09T07:56:53;23.50;66.70
21439;DHT22;10880;50.302;18.736;2022-09-09T07:59:22;23.50;66.50
21439;DHT22;10880;50.302;18.736;2022-09-09T08:01:52;23.60;66.50
21439;DHT22;10880;50.302;18.736;2022-09-09T08:04:24;23.60;66.70
21439;DHT22;10880;50.302;18.736;2022-09-09T08:06:54;23.70;66.80
21439;DHT22;10880;50.302;18.736;2022-09-09T08:09:23;23.70;66.90
21439;DHT22;10880;50.302;18.736;2022-09-09T08:12:00;23.80;66.60
21439;DHT22;10880;50.302;18.736;2022-09-09T08:14:29;23.80;66.20
21439;DHT22;10880;50.302;18.736;2022-09-09T08:16:57;23.90;66.10
21439;DHT22;10880;50.302;18.736;2022-09-09T08:19:27;23.90;66.10
21439;DHT22;10880;50.302;18.736;2022-09-09T08:21:56;23.90;65.90
21439;DHT22;10880;50.302;18.736;2022-09-09T08:24:22;24.00;65.70
21439;DHT22;10880;50.302;18.736;2022-09-09T08:26:50;24.00;65.80
21439;DHT22;10880;50.302;18.736;2022-09-09T08:29:20;24.00;65.60
21439;DHT22;10880;50.302;18.736;2022-09-09T08:31:50;24.10;65.50
21439;DHT22;10880;50.302;18.736;2022-09-09T08:34:54;24.10;66.00
21439;DHT22;10880;50.302;18.736;2022-09-09T08:37:25;24.10;65.50
21439;DHT22;10880;50.302;18.736;2022-09-09T08:39:58;24.10;65.10
21439;DHT22;10880;50.302;18.736;2022-09-09T08:42:45;24.20;65.10
21439;DHT22;10880;50.302;18.736;2022-09-09T08:50:52;24.20;65.80
21439;DHT22;10880;50.302;18.736;2022-09-09T08:53:26;24.20;65.10
21439;DHT22;10880;50.302;18.736;2022-09-09T08:55:58;24.20;65.50
21439;DHT22;10880;50.302;18.736;2022-09-09T08:58:52;24.30;65.70
21439;DHT22;10880;50.302;18.736;2022-09-09T09:01:41;24.30;65.70
21439;DHT22;10880;50.302;18.736;2022-09-09T09:04:45;24.30;65.30
21439;DHT22;10880;50.302;18.736;2022-09-09T09:08:36;24.40;65.90
21439;DHT22;10880;50.302;18.736;2022-09-09T09:10:49;24.40;65.40
21439;DHT22;10880;50.302;18.736;2022-09-09T09:13:45;24.40;65.20
21439;DHT22;10880;50.302;18.736;2022-09-09T09:16:38;24.40;65.20
21439;DHT22;10880;50.302;18.736;2022-09-09T09:19:10;24.40;65.20
21439;DHT22;10880;50.302;18.736;2022-09-09T09:25:27;24.50;65.20
21439;DHT22;10880;50.302;18.736;2022-09-09T09:27:52;24.50;65.00
21439;DHT22;10880;50.302;18.736;2022-09-09T09:30:28;24.60;64.80
21439;DHT22;10880;50.302;18.736;2022-09-09T09:33:11;24.60;64.70
21439;DHT22;10880;50.302;18.736;2022-09-09T09:35:42;24.60;64.70
21439;DHT22;10880;50.302;18.736;2022-09-09T09:38:21;24.60;64.20
21439;DHT22;10880;50.302;18.736;2022-09-09T09:40:55;24.60;64.60
21439;DHT22;10880;50.302;18.736;2022-09-09T09:43:37;24.70;64.40
21439;DHT22;10880;50.302;18.736;2022-09-09T09:46:21;24.70;64.30
21439;DHT22;10880;50.302;18.736;2022-09-09T09:49:05;24.70;64.20
21439;DHT22;10880;50.302;18.736;2022-09-09T09:51:33;24.70;64.20
21439;DHT22;10880;50.302;18.736;2022-09-09T09:54:31;24.80;64.20
21439;DHT22;10880;50.302;18.736;2022-09-09T09:57:13;24.80;64.20
21439;DHT22;10880;50.302;18.736;2022-09-09T09:59:45;24.80;63.90
21439;DHT22;10880;50.302;18.736;2022-09-09T10:02:22;24.80;63.40
21439;DHT22;10880;50.302;18.736;2022-09-09T10:05:22;24.90;63.80
21439;DHT22;10880;50.302;18.736;2022-09-09T10:08:08;24.90;63.60
21439;DHT22;10880;50.302;18.736;2022-09-09T10:11:44;24.90;63.50
21439;DHT22;10880;50.302;18.736;2022-09-09T10:13:57;24.90;63.60
21439;DHT22;10880;50.302;18.736;2022-09-09T10:19:16;24.90;63.60
21439;DHT22;10880;50.302;18.736;2022-09-09T10:30:46;25.00;63.20
21439;DHT22;10880;50.302;18.736;2022-09-09T10:36:02;25.00;62.30
21439;DHT22;10880;50.302;18.736;2022-09-09T10:38:48;25.00;62.80
21439;DHT22;10880;50.302;18.736;2022-09-09T10:41:37;25.10;62.60
21439;DHT22;10880;50.302;18.736;2022-09-09T10:50:18;25.10;62.30
21439;DHT22;10880;50.302;18.736;2022-09-09T10:55:44;25.10;61.90
21439;DHT22;10880;50.302;18.736;2022-09-09T10:58:25;25.10;62.60
21439;DHT22;10880;50.302;18.736;2022-09-09T11:00:57;25.20;62.70
21439;DHT22;10880;50.302;18.736;2022-09-09T11:03:31;25.20;62.90
21439;DHT22;10880;50.302;18.736;2022-09-09T11:06:06;24.90;62.10
21439;DHT22;10880;50.302;18.736;2022-09-09T11:08:41;25.20;62.20
21439;DHT22;10880;50.302;18.736;2022-09-09T11:11:13;25.30;62.20
21439;DHT22;10880;50.302;18.736;2022-09-09T11:14:04;25.20;61.70
21439;DHT22;10880;50.302;18.736;2022-09-09T11:16:50;25.30;61.90
21439;DHT22;10880;50.302;18.736;2022-09-09T11:19:34;25.30;61.90
21439;DHT22;10880;50.302;18.736;2022-09-09T11:22:48;25.30;61.70
21439;DHT22;10880;50.302;18.736;2022-09-09T11:30:20;25.40;61.20
21439;DHT22;10880;50.302;18.736;2022-09-09T11:39:35;25.50;61.20
21439;DHT22;10880;50.302;18.736;2022-09-09T11:42:15;25.50;62.00
21439;DHT22;10880;50.302;18.736;2022-09-09T11:44:44;25.50;61.10
21439;DHT22;10880;50.302;18.736;2022-09-09T11:47:37;25.50;60.80
21439;DHT22;10880;50.302;18.736;2022-09-09T11:52:43;25.50;60.80
21439;DHT22;10880;50.302;18.736;2022-09-09T11:58:17;25.60;60.70
21439;DHT22;10880;50.302;18.736;2022-09-09T12:00:49;25.60;60.30
21439;DHT22;10880;50.302;18.736;2022-09-09T12:06:11;25.60;59.80
21439;DHT22;10880;50.302;18.736;2022-09-09T12:08:43;25.60;60.00
21439;DHT22;10880;50.302;18.736;2022-09-09T12:11:11;25.60;60.00
21439;DHT22;10880;50.302;18.736;2022-09-09T12:13:38;25.60;60.60
21439;DHT22;10880;50.302;18.736;2022-09-09T12:16:04;25.70;59.70
21439;DHT22;10880;50.302;18.736;2022-09-09T12:18:34;25.70;59.90
21439;DHT22;10880;50.302;18.736;2022-09-09T12:21:29;25.70;59.90
21439;DHT22;10880;50.302;18.736;2022-09-09T12:24:13;25.70;59.60
21439;DHT22;10880;50.302;18.736;2022-09-09T12:26:51;25.80;59.50
21439;DHT22;10880;50.302;18.736;2022-09-09T12:29:59;25.80;59.40
21439;DHT22;10880;50.302;18.736;2022-09-09T12:32:28;25.80;59.30
21439;DHT22;10880;50.302;18.736;2022-09-09T12:35:02;25.80;59.00
21439;DHT22;10880;50.302;18.736;2022-09-09T12:37:39;25.80;59.30
21439;DHT22;10880;50.302;18.736;2022-09-09T12:40:23;25.80;59.30
21439;DHT22;10880;50.302;18.736;2022-09-09T12:42:50;25.90;59.30
21439;DHT22;10880;50.302;18.736;2022-09-09T12:45:22;25.90;59.00
21439;DHT22;10880;50.302;18.736;2022-09-09T12:48:28;25.90;59.10
21439;DHT22;10880;50.302;18.736;2022-09-09T12:50:51;25.90;59.10
21439;DHT22;10880;50.302;18.736;2022-09-09T12:53:35;25.90;58.90
21439;DHT22;10880;50.302;18.736;2022-09-09T12:56:07;25.90;59.00
21439;DHT22;10880;50.302;18.736;2022-09-09T12:58:37;25.90;58.90
21439;DHT22;10880;50.302;18.736;2022-09-09T13:01:05;25.90;59.00
21439;DHT22;10880;50.302;18.736;2022-09-09T13:03:33;25.90;58.90
21439;DHT22;10880;50.302;18.736;2022-09-09T13:06:16;25.90;58.90
21439;DHT22;10880;50.302;18.736;2022-09-09T13:08:44;25.60;58.60
21439;DHT22;10880;50.302;18.736;2022-09-09T13:11:15;25.90;58.40
21439;DHT22;10880;50.302;18.736;2022-09-09T13:13:50;26.00;58.40
21439;DHT22;10880;50.302;18.736;2022-09-09T13:19:02;25.90;57.90
21439;DHT22;10880;50.302;18.736;2022-09-09T13:21:34;26.00;58.10
21439;DHT22;10880;50.302;18.736;2022-09-09T13:24:01;25.90;58.10
21439;DHT22;10880;50.302;18.736;2022-09-09T13:26:29;26.00;58.00
21439;DHT22;10880;50.302;18.736;2022-09-09T13:29:17;26.00;57.70
21439;DHT22;10880;50.302;18.736;2022-09-09T13:31:45;26.00;57.80
21439;DHT22;10880;50.302;18.736;2022-09-09T13:34:27;26.00;57.40
21439;DHT22;10880;50.302;18.736;2022-09-09T13:36:59;26.00;57.20
21439;DHT22;10880;50.302;18.736;2022-09-09T13:39:28;26.00;57.30
21439;DHT22;10880;50.302;18.736;2022-09-09T13:41:55;26.00;57.40
21439;DHT22;10880;50.302;18.736;2022-09-09T13:47:17;26.00;57.20
21439;DHT22;10880;50.302;18.736;2022-09-09T13:49:47;26.00;57.00
21439;DHT22;10880;50.302;18.736;2022-09-09T13:52:18;26.00;56.90
21439;DHT22;10880;50.302;18.736;2022-09-09T13:54:49;26.00;57.70
21439;DHT22;10880;50.302;18.736;2022-09-09T13:57:24;26.00;56.90
21439;DHT22;10880;50.302;18.736;2022-09-09T13:59:53;26.00;56.90
21439;DHT22;10880;50.302;18.736;2022-09-09T14:02:21;26.00;56.80
21439;DHT22;10880;50.302;18.736;2022-09-09T14:04:49;26.00;56.70
21439;DHT22;10880;50.302;18.736;2022-09-09T14:07:21;26.00;56.50
21439;DHT22;10880;50.302;18.736;2022-09-09T14:09:52;25.90;56.50
21439;DHT22;10880;50.302;18.736;2022-09-09T14:12:18;26.00;56.30
21439;DHT22;10880;50.302;18.736;2022-09-09T14:14:46;26.00;56.40
21439;DHT22;10880;50.302;18.736;2022-09-09T14:17:12;25.90;56.30
21439;DHT22;10880;50.302;18.736;2022-09-09T14:19:39;26.00;56.40
21439;DHT22;10880;50.302;18.736;2022-09-09T14:22:06;26.00;56.00
21439;DHT22;10880;50.302;18.736;2022-09-09T14:24:33;26.00;56.30
21439;DHT22;10880;50.302;18.736;2022-09-09T14:27:00;26.00;56.70
21439;DHT22;10880;50.302;18.736;2022-09-09T14:29:27;26.00;56.00
21439;DHT22;10880;50.302;18.736;2022-09-09T14:31:54;26.00;56.60
21439;DHT22;10880;50.302;18.736;2022-09-09T14:34:21;26.00;56.20
21439;DHT22;10880;50.302;18.736;2022-09-09T14:36:48;26.00;54.90
21439;DHT22;10880;50.302;18.736;2022-09-09T14:39:14;26.00;55.90
21439;DHT22;10880;50.302;18.736;2022-09-09T14:41:43;26.00;56.40
21439;DHT22;10880;50.302;18.736;2022-09-09T14:44:11;26.00;56.40
21439;DHT22;10880;50.302;18.736;2022-09-09T14:46:38;26.00;56.20
21439;DHT22;10880;50.302;18.736;2022-09-09T14:49:04;26.00;55.90
21439;DHT22;10880;50.302;18.736;2022-09-09T14:51:31;26.00;55.80
21439;DHT22;10880;50.302;18.736;2022-09-09T14:53:59;26.00;55.80
21439;DHT22;10880;50.302;18.736;2022-09-09T14:56:30;26.00;56.30
21439;DHT22;10880;50.302;18.736;2022-09-09T14:58:58;26.00;56.30
21439;DHT22;10880;50.302;18.736;2022-09-09T15:01:27;26.00;56.30
21439;DHT22;10880;50.302;18.736;2022-09-09T15:04:04;26.00;56.20
21439;DHT22;10880;50.302;18.736;2022-09-09T15:06:35;26.00;56.20
21439;DHT22;10880;50.302;18.736;2022-09-09T15:09:06;26.00;55.90
21439;DHT22;10880;50.302;18.736;2022-09-09T15:11:36;26.00;55.80
21439;DHT22;10880;50.302;18.736;2022-09-09T15:14:07;26.00;55.80
21439;DHT22;10880;50.302;18.736;2022-09-09T15:16:34;26.00;56.20
21439;DHT22;10880;50.302;18.736;2022-09-09T15:19:04;26.00;56.20
21439;DHT22;10880;50.302;18.736;2022-09-09T15:21:33;26.00;56.30
21439;DHT22;10880;50.302;18.736;2022-09-09T15:24:01;25.90;56.20
21439;DHT22;10880;50.302;18.736;2022-09-09T15:26:28;25.90;55.90
21439;DHT22;10880;50.302;18.736;2022-09-09T15:28:56;25.90;56.10
21439;DHT22;10880;50.302;18.736;2022-09-09T15:31:29;25.90;56.00
21439;DHT22;10880;50.302;18.736;2022-09-09T15:34:01;25.90;56.10
21439;DHT22;10880;50.302;18.736;2022-09-09T15:36:40;25.90;56.30
21439;DHT22;10880;50.302;18.736;2022-09-09T15:39:11;25.90;56.50
21439;DHT22;10880;50.302;18.736;2022-09-09T15:41:39;25.90;56.40
21439;DHT22;10880;50.302;18.736;2022-09-09T15:44:06;25.80;55.40
21439;DHT22;10880;50.302;18.736;2022-09-09T15:49:05;25.80;56.50
21439;DHT22;10880;50.302;18.736;2022-09-09T15:51:32;25.80;56.60
21439;DHT22;10880;50.302;18.736;2022-09-09T15:53:59;25.80;55.90
21439;DHT22;10880;50.302;18.736;2022-09-09T15:56:28;25.70;55.80
21439;DHT22;10880;50.302;18.736;2022-09-09T15:58:59;25.80;56.60
21439;DHT22;10880;50.302;18.736;2022-09-09T16:01:26;25.70;56.40
21439;DHT22;10880;50.302;18.736;2022-09-09T16:03:53;25.70;56.20
21439;DHT22;10880;50.302;18.736;2022-09-09T16:06:23;25.70;56.30
21439;DHT22;10880;50.302;18.736;2022-09-09T16:08:52;25.60;56.70
21439;DHT22;10880;50.302;18.736;2022-09-09T16:11:33;25.60;56.70
21439;DHT22;10880;50.302;18.736;2022-09-09T16:14:00;25.60;56.80
21439;DHT22;10880;50.302;18.736;2022-09-09T16:16:29;25.60;56.60
21439;DHT22;10880;50.302;18.736;2022-09-09T16:18:58;25.60;56.80
21439;DHT22;10880;50.302;18.736;2022-09-09T16:21:31;25.50;56.90
21439;DHT22;10880;50.302;18.736;2022-09-09T16:24:05;25.50;57.00
21439;DHT22;10880;50.302;18.736;2022-09-09T16:26:34;25.50;57.00
21439;DHT22;10880;50.302;18.736;2022-09-09T16:29:01;25.50;57.00
21439;DHT22;10880;50.302;18.736;2022-09-09T16:31:29;25.40;56.80
21439;DHT22;10880;50.302;18.736;2022-09-09T16:33:56;25.50;57.10
21439;DHT22;10880;50.302;18.736;2022-09-09T16:36:27;25.40;57.00
21439;DHT22;10880;50.302;18.736;2022-09-09T16:38:55;25.40;57.20
21439;DHT22;10880;50.302;18.736;2022-09-09T16:41:24;25.40;57.10
21439;DHT22;10880;50.302;18.736;2022-09-09T16:43:55;25.30;57.20
21439;DHT22;10880;50.302;18.736;2022-09-09T16:46:22;25.30;57.20
21439;DHT22;10880;50.302;18.736;2022-09-09T16:48:50;25.30;57.20
21439;DHT22;10880;50.302;18.736;2022-09-09T16:53:44;25.20;56.80
21439;DHT22;10880;50.302;18.736;2022-09-09T16:56:16;25.20;57.00
21439;DHT22;10880;50.302;18.736;2022-09-09T16:58:43;25.20;57.40
21439;DHT22;10880;50.302;18.736;2022-09-09T17:01:11;25.20;57.20
21439;DHT22;10880;50.302;18.736;2022-09-09T17:03:41;25.10;57.20
21439;DHT22;10880;50.302;18.736;2022-09-09T17:06:12;25.10;57.30
21439;DHT22;10880;50.302;18.736;2022-09-09T17:08:39;25.10;57.40
21439;DHT22;10880;50.302;18.736;2022-09-09T17:11:17;25.10;57.40
21439;DHT22;10880;50.302;18.736;2022-09-09T17:13:46;25.00;57.50
21439;DHT22;10880;50.302;18.736;2022-09-09T17:16:16;24.90;57.30
21439;DHT22;10880;50.302;18.736;2022-09-09T17:18:43;24.90;57.40
21439;DHT22;10880;50.302;18.736;2022-09-09T17:21:15;24.90;57.40
21439;DHT22;10880;50.302;18.736;2022-09-09T17:23:42;24.90;57.50
21439;DHT22;10880;50.302;18.736;2022-09-09T17:26:11;24.90;57.10
21439;DHT22;10880;50.302;18.736;2022-09-09T17:28:39;24.80;57.40
21439;DHT22;10880;50.302;18.736;2022-09-09T17:31:07;24.80;57.50
21439;DHT22;10880;50.302;18.736;2022-09-09T17:33:36;24.80;57.50
21439;DHT22;10880;50.302;18.736;2022-09-09T17:36:30;24.70;57.60
21439;DHT22;10880;50.302;18.736;2022-09-09T17:39:01;24.70;57.70
21439;DHT22;10880;50.302;18.736;2022-09-09T17:41:31;24.70;57.70
21439;DHT22;10880;50.302;18.736;2022-09-09T17:43:58;24.70;57.70